createdAt,value
2019-05-20T00:02:02.690Z,4.93
2019-05-20T00:04:29.970Z,4.40
2019-05-20T00:06:57.124Z,4.37
2019-05-20T00:09:24.607Z,3.37
2019-05-20T00:11:53.715Z,4.37
2019-05-20T00:14:20.873Z,4.00
2019-05-20T00:16:47.815Z,3.40
2019-05-20T00:19:14.692Z,3.20
2019-05-20T00:21:41.747Z,4.60
2019-05-20T00:24:08.972Z,3.30
2019-05-20T00:26:36.136Z,2.97
2019-05-20T00:29:03.392Z,4.53
2019-05-20T00:31:30.623Z,2.80
2019-05-20T00:33:57.805Z,2.70
2019-05-20T00:36:24.821Z,2.63
2019-05-20T00:39:15.589Z,3.27
2019-05-20T00:41:42.952Z,2.97
2019-05-20T00:44:09.834Z,3.67
2019-05-20T00:46:37.420Z,3.73
2019-05-20T00:49:04.804Z,4.57
2019-05-20T00:51:32.923Z,3.30
2019-05-20T00:54:00.419Z,4.03
2019-05-20T00:56:27.514Z,3.20
2019-05-20T00:58:54.731Z,3.77
2019-05-20T01:01:22.504Z,3.00
2019-05-20T01:03:49.484Z,4.83
2019-05-20T01:06:16.568Z,3.73
2019-05-20T01:08:44.567Z,2.77
2019-05-20T01:11:11.759Z,3.40
2019-05-20T01:13:38.708Z,5.10
2019-05-20T01:16:05.724Z,3.33
2019-05-20T01:18:33.040Z,3.50
2019-05-20T01:20:59.899Z,4.50
2019-05-20T01:23:26.888Z,3.23
2019-05-20T01:25:54.099Z,2.30
2019-05-20T01:28:21.469Z,3.50
2019-05-20T01:30:48.820Z,4.37
2019-05-20T01:33:16.132Z,3.20
2019-05-20T01:35:43.592Z,3.53
2019-05-20T01:38:10.472Z,2.83
2019-05-20T01:40:37.831Z,5.87
2019-05-20T01:43:04.708Z,10.23
2019-05-20T01:45:31.809Z,4.97
2019-05-20T01:47:58.850Z,5.47
2019-05-20T01:50:26.160Z,5.70
2019-05-20T01:52:53.341Z,6.13
2019-05-20T01:55:20.311Z,10.57
2019-05-20T01:57:48.169Z,12.33
2019-05-20T02:00:15.749Z,4.20
2019-05-20T02:02:42.922Z,3.80
2019-05-20T02:05:10.232Z,4.27
2019-05-20T02:07:37.313Z,3.30
2019-05-20T02:10:04.857Z,6.30
2019-05-20T02:12:32.140Z,2.90
2019-05-20T02:15:08.558Z,8.00
2019-05-20T02:17:35.996Z,4.83
2019-05-20T02:20:04.612Z,3.60
2019-05-20T02:22:31.808Z,5.83
2019-05-20T02:24:59.163Z,4.30
2019-05-20T02:27:26.576Z,3.00
2019-05-20T02:29:53.596Z,4.57
2019-05-20T02:32:20.717Z,2.73
2019-05-20T02:34:47.734Z,3.40
2019-05-20T02:37:14.899Z,4.17
2019-05-20T02:39:42.237Z,8.63
2019-05-20T02:42:09.454Z,3.10
2019-05-20T02:44:36.496Z,4.00
2019-05-20T02:47:03.775Z,4.10
2019-05-20T02:49:30.794Z,4.90
2019-05-20T02:51:58.317Z,3.43
2019-05-20T02:54:25.632Z,2.97
2019-05-20T02:56:53.267Z,3.53
2019-05-20T02:59:20.362Z,5.27
2019-05-20T03:01:47.700Z,3.23
2019-05-20T03:04:14.776Z,3.97
2019-05-20T03:06:41.793Z,3.13
2019-05-20T03:09:12.105Z,2.67
2019-05-20T03:11:38.326Z,3.90
2019-05-20T03:14:05.337Z,4.10
2019-05-20T03:16:32.361Z,3.20
2019-05-20T03:18:59.473Z,3.53
2019-05-20T03:21:26.605Z,4.30
2019-05-20T03:23:54.192Z,2.67
2019-05-20T03:26:21.553Z,4.77
2019-05-20T03:28:48.668Z,3.40
2019-05-20T03:31:15.769Z,3.10
2019-05-20T03:33:43.089Z,3.40
2019-05-20T03:36:10.418Z,3.17
2019-05-20T03:38:37.681Z,5.27
2019-05-20T03:41:04.836Z,3.57
2019-05-20T03:43:32.251Z,5.07
2019-05-20T03:45:59.233Z,4.47
2019-05-20T03:48:26.274Z,3.57
2019-05-20T03:50:53.297Z,5.37
2019-05-20T03:53:20.157Z,3.03
2019-05-20T03:55:47.261Z,3.90
2019-05-20T03:58:14.358Z,4.17
2019-05-20T04:00:45.666Z,2.80
2019-05-20T04:03:13.391Z,3.23
2019-05-20T04:05:40.620Z,2.93
2019-05-20T04:08:07.720Z,3.47
2019-05-20T04:10:34.881Z,4.00
2019-05-20T04:13:02.119Z,3.50
2019-05-20T04:15:29.223Z,5.10
2019-05-20T04:17:56.252Z,3.87
2019-05-20T04:20:23.745Z,15.27
2019-05-20T04:22:50.853Z,3.87
2019-05-20T04:25:17.884Z,3.63
2019-05-20T04:27:45.071Z,3.30
2019-05-20T04:30:12.311Z,3.43
2019-05-20T04:32:39.802Z,3.10
2019-05-20T04:35:21.464Z,5.53
2019-05-20T04:37:35.918Z,5.10
2019-05-20T04:40:03.497Z,4.47
2019-05-20T04:42:30.520Z,2.97
2019-05-20T04:44:57.517Z,4.63
2019-05-20T04:47:25.076Z,6.17
2019-05-20T04:49:52.089Z,6.10
2019-05-20T04:52:19.232Z,8.33
2019-05-20T04:54:47.156Z,6.83
2019-05-20T04:57:14.164Z,4.67
2019-05-20T04:59:41.196Z,5.47
2019-05-20T05:02:08.316Z,10.20
2019-05-20T05:04:35.777Z,5.43
2019-05-20T05:07:02.982Z,9.40
2019-05-20T05:09:30.245Z,6.27
2019-05-20T05:11:57.809Z,6.67
2019-05-20T05:14:25.572Z,6.67
2019-05-20T05:16:53.044Z,8.03
2019-05-20T05:19:20.027Z,6.23
2019-05-20T05:21:48.064Z,6.83
2019-05-20T05:24:15.196Z,5.83
2019-05-20T05:26:42.403Z,7.60
2019-05-20T05:29:09.788Z,8.93
2019-05-20T05:31:36.793Z,8.27
2019-05-20T05:34:04.459Z,4.93
2019-05-20T05:36:31.482Z,6.00
2019-05-20T05:38:58.483Z,5.67
2019-05-20T05:41:25.619Z,5.40
2019-05-20T05:43:52.771Z,7.10
2019-05-20T05:46:19.660Z,5.40
2019-05-20T05:48:46.701Z,9.23
2019-05-20T05:51:13.789Z,6.90
2019-05-20T05:53:41.308Z,6.70
2019-05-20T05:56:08.441Z,12.93
2019-05-20T05:58:35.433Z,7.60
2019-05-20T06:01:02.549Z,6.00
2019-05-20T06:03:29.581Z,6.57
2019-05-20T06:06:11.366Z,7.73
2019-05-20T06:08:25.719Z,6.27
2019-05-20T06:10:53.016Z,8.43
2019-05-20T06:13:20.005Z,9.50
2019-05-20T06:15:47.096Z,7.80
2019-05-20T06:18:14.132Z,5.90
2019-05-20T06:20:41.253Z,5.90
2019-05-20T06:23:09.480Z,7.70
2019-05-20T06:25:36.718Z,8.63
2019-05-20T06:28:03.857Z,7.23
2019-05-20T06:30:39.492Z,6.77
2019-05-20T06:33:07.008Z,6.20
2019-05-20T06:35:34.508Z,8.53
2019-05-20T06:38:04.148Z,6.37
2019-05-20T06:40:31.489Z,9.40
2019-05-20T06:42:59.520Z,9.70
2019-05-20T06:45:26.676Z,10.40
2019-05-20T06:47:53.688Z,8.60
2019-05-20T06:50:20.744Z,9.27
2019-05-20T06:52:48.464Z,9.13
2019-05-20T06:55:15.791Z,13.33
2019-05-20T06:57:42.791Z,9.03
2019-05-20T07:00:11.914Z,11.50
2019-05-20T07:02:38.892Z,10.30
2019-05-20T07:05:06.432Z,14.20
2019-05-20T07:07:33.768Z,12.30
2019-05-20T07:10:00.928Z,10.63
2019-05-20T07:12:40.472Z,15.30
2019-05-20T07:14:57.051Z,10.50
2019-05-20T07:17:24.143Z,9.70
2019-05-20T07:19:51.261Z,8.87
2019-05-20T07:22:18.365Z,9.83
2019-05-20T07:24:45.279Z,8.53
2019-05-20T07:27:12.364Z,22.83
2019-05-20T07:29:39.752Z,13.73
2019-05-20T07:32:06.643Z,9.60
2019-05-20T07:34:33.976Z,8.90
2019-05-20T07:37:03.819Z,11.23
2019-05-20T07:39:30.751Z,8.70
2019-05-20T07:41:57.944Z,9.30
2019-05-20T07:44:25.050Z,7.53
2019-05-20T07:46:52.397Z,10.00
2019-05-20T07:49:19.952Z,8.67
2019-05-20T07:51:48.020Z,10.47
2019-05-20T07:54:16.620Z,10.40
2019-05-20T07:56:46.096Z,8.47
2019-05-20T07:59:16.292Z,8.43
2019-05-20T08:01:43.183Z,10.90
2019-05-20T08:04:10.415Z,9.37
2019-05-20T08:06:37.600Z,8.57
2019-05-20T08:09:05.772Z,9.93
2019-05-20T08:11:34.007Z,17.83
2019-05-20T08:14:01.384Z,10.63
2019-05-20T08:16:28.531Z,12.97
2019-05-20T08:18:55.905Z,11.40
2019-05-20T08:21:23.725Z,25.13
2019-05-20T08:23:50.927Z,19.23
2019-05-20T08:26:18.373Z,12.80
2019-05-20T08:28:47.025Z,12.10
2019-05-20T08:31:14.222Z,14.07
2019-05-20T08:33:41.304Z,16.30
2019-05-20T08:36:08.429Z,14.47
2019-05-20T08:38:35.414Z,13.23
2019-05-20T08:41:02.544Z,19.90
2019-05-20T08:43:29.534Z,13.80
2019-05-20T08:45:56.557Z,20.10
2019-05-20T08:48:23.724Z,15.93
2019-05-20T08:50:50.869Z,15.83
2019-05-20T08:53:17.729Z,11.87
2019-05-20T08:55:44.969Z,14.13
2019-05-20T08:58:12.208Z,11.33
2019-05-20T09:00:39.352Z,12.50
2019-05-20T09:03:06.615Z,13.47
2019-05-20T09:05:33.613Z,11.60
2019-05-20T09:08:03.544Z,11.93
2019-05-20T09:10:29.439Z,13.27
2019-05-20T09:12:56.560Z,12.70
2019-05-20T09:15:23.837Z,13.30
2019-05-20T09:17:51.092Z,9.20
2019-05-20T09:20:18.444Z,10.67
2019-05-20T09:22:46.145Z,10.80
2019-05-20T09:25:14.019Z,13.60
2019-05-20T09:27:41.237Z,10.00
2019-05-20T09:30:10.059Z,14.67
2019-05-20T09:32:42.075Z,17.70
2019-05-20T09:35:07.012Z,12.83
2019-05-20T09:37:34.153Z,10.37
2019-05-20T09:40:01.241Z,9.67
2019-05-20T09:42:28.520Z,9.03
2019-05-20T09:44:55.684Z,9.37
2019-05-20T09:47:22.886Z,9.57
2019-05-20T09:49:50.136Z,9.40
2019-05-20T09:52:17.223Z,7.33
2019-05-20T09:54:45.641Z,6.57
2019-05-20T09:57:12.947Z,11.93
2019-05-20T09:59:43.348Z,9.63
2019-05-20T10:02:08.941Z,12.60
2019-05-20T10:04:36.185Z,10.83
2019-05-20T10:07:03.552Z,11.80
2019-05-20T10:09:30.740Z,11.27
2019-05-20T10:11:58.331Z,8.40
2019-05-20T10:14:25.814Z,9.17
2019-05-20T10:16:53.131Z,9.40
2019-05-20T10:19:20.206Z,9.20
2019-05-20T10:21:47.307Z,9.40
2019-05-20T10:24:14.532Z,10.80
2019-05-20T10:26:41.578Z,12.37
2019-05-20T10:29:08.747Z,8.47
2019-05-20T10:31:35.798Z,7.37
2019-05-20T10:34:03.029Z,10.47
2019-05-20T10:36:29.902Z,8.53
2019-05-20T10:38:59.421Z,17.27
2019-05-20T10:41:29.356Z,18.37
2019-05-20T10:43:55.177Z,10.03
2019-05-20T10:46:22.796Z,16.37
2019-05-20T10:48:49.852Z,9.97
2019-05-20T10:51:16.745Z,12.20
2019-05-20T10:53:44.353Z,12.67
2019-05-20T10:56:11.931Z,14.50
2019-05-20T10:58:39.180Z,15.93
2019-05-20T11:01:06.308Z,16.93
2019-05-20T11:03:33.403Z,16.27
2019-05-20T11:06:00.510Z,15.83
2019-05-20T11:08:28.454Z,17.60
2019-05-20T11:10:55.683Z,13.77
2019-05-20T11:13:22.913Z,18.63
2019-05-20T11:15:50.408Z,15.87
2019-05-20T11:18:17.523Z,17.00
2019-05-20T11:20:44.529Z,15.47
2019-05-20T11:23:11.944Z,19.77
2019-05-20T11:25:38.931Z,21.03
2019-05-20T11:28:05.949Z,17.50
2019-05-20T11:30:33.035Z,18.43
2019-05-20T11:33:00.350Z,20.30
2019-05-20T11:35:27.459Z,18.70
2019-05-20T11:37:54.456Z,16.03
2019-05-20T11:40:22.168Z,27.03
2019-05-20T11:42:49.148Z,20.73
2019-05-20T11:45:18.076Z,24.73
2019-05-20T11:47:45.233Z,20.83
2019-05-20T11:50:12.636Z,19.77
2019-05-20T11:52:39.758Z,18.43
2019-05-20T11:55:07.209Z,25.60
2019-05-20T11:57:34.557Z,21.30
2019-05-20T12:00:02.324Z,15.50
2019-05-20T12:02:29.364Z,22.77
2019-05-20T12:04:56.809Z,23.23
2019-05-20T12:07:23.832Z,17.80
2019-05-20T12:09:51.090Z,32.50
2019-05-20T12:12:18.242Z,25.43
2019-05-20T12:14:45.300Z,21.87
2019-05-20T12:17:12.425Z,19.03
2019-05-20T12:19:39.338Z,25.33
2019-05-20T12:22:07.077Z,18.07
2019-05-20T12:24:34.219Z,24.37
2019-05-20T12:27:01.364Z,24.90
2019-05-20T12:29:28.312Z,28.03
2019-05-20T12:31:55.176Z,29.47
2019-05-20T12:34:22.327Z,25.17
2019-05-20T12:36:49.329Z,31.37
2019-05-20T12:39:16.576Z,29.10
2019-05-20T12:41:43.840Z,26.80
2019-05-20T12:44:13.104Z,27.27
2019-05-20T12:46:39.987Z,28.30
2019-05-20T12:49:07.291Z,28.77
2019-05-20T12:51:34.568Z,28.73
2019-05-20T12:54:01.730Z,33.57
2019-05-20T12:56:28.752Z,26.87
2019-05-20T12:58:56.169Z,35.70
2019-05-20T13:01:23.168Z,43.77
2019-05-20T13:03:50.544Z,34.10
2019-05-20T13:06:17.697Z,31.57
2019-05-20T13:08:45.056Z,32.30
2019-05-20T13:11:12.188Z,24.20
2019-05-20T13:13:39.480Z,33.17
2019-05-20T13:16:06.476Z,34.43
2019-05-20T13:18:33.472Z,37.07
2019-05-20T13:21:00.858Z,37.47
2019-05-20T13:23:27.988Z,33.60
2019-05-20T13:25:55.171Z,23.40
2019-05-20T13:28:22.756Z,30.63
2019-05-20T13:30:49.801Z,30.53
2019-05-20T13:33:16.683Z,27.97
2019-05-20T13:35:43.956Z,28.90
2019-05-20T13:38:11.049Z,33.37
2019-05-20T13:40:46.409Z,24.97
2019-05-20T13:43:07.711Z,24.77
2019-05-20T13:45:34.575Z,24.10
2019-05-20T13:48:01.560Z,34.40
2019-05-20T13:50:28.451Z,31.47
2019-05-20T13:52:55.409Z,29.77
2019-05-20T13:55:22.434Z,42.07
2019-05-20T13:57:49.600Z,33.77
2019-05-20T14:00:17.231Z,36.13
2019-05-20T14:02:44.889Z,40.27
2019-05-20T14:05:11.976Z,30.93
2019-05-20T14:07:39.047Z,34.10
2019-05-20T14:10:06.716Z,38.13
2019-05-20T14:12:33.908Z,37.17
2019-05-20T14:15:00.769Z,39.40
2019-05-20T14:17:28.084Z,40.87
2019-05-20T14:19:55.202Z,35.70
2019-05-20T14:22:22.304Z,32.57
2019-05-20T14:24:49.781Z,44.27
2019-05-20T14:27:17.006Z,37.37
2019-05-20T14:29:44.147Z,39.77
2019-05-20T14:32:11.264Z,40.73
2019-05-20T14:34:38.245Z,37.30
2019-05-20T14:37:06.145Z,34.40
2019-05-20T14:39:33.240Z,42.13
2019-05-20T14:42:00.140Z,41.93
2019-05-20T14:44:27.288Z,42.30
2019-05-20T14:46:54.400Z,38.43
2019-05-20T14:49:21.588Z,36.73
2019-05-20T14:51:48.780Z,37.63
2019-05-20T14:54:15.756Z,36.37
2019-05-20T14:56:42.848Z,45.13
2019-05-20T14:59:09.936Z,48.50
2019-05-20T15:01:37.072Z,43.53
2019-05-20T15:04:04.336Z,42.63
2019-05-20T15:06:31.345Z,38.10
2019-05-20T15:08:58.843Z,42.97
2019-05-20T15:11:37.764Z,42.03
2019-05-20T15:13:55.060Z,42.30
2019-05-20T15:16:22.177Z,40.47
2019-05-20T15:18:49.032Z,44.43
2019-05-20T15:21:16.172Z,39.43
2019-05-20T15:23:43.498Z,42.60
2019-05-20T15:26:10.582Z,41.63
2019-05-20T15:28:37.672Z,37.90
2019-05-20T15:31:04.942Z,42.27
2019-05-20T15:33:31.976Z,37.23
2019-05-20T15:35:59.063Z,45.60
2019-05-20T15:38:26.162Z,47.80
2019-05-20T15:40:53.276Z,44.87
2019-05-20T15:43:20.180Z,44.80
2019-05-20T15:45:47.258Z,34.40
2019-05-20T15:48:14.258Z,38.87
2019-05-20T15:50:42.544Z,46.97
2019-05-20T15:53:11.851Z,41.53
2019-05-20T15:55:38.823Z,41.00
2019-05-20T15:58:06.365Z,46.03
2019-05-20T16:00:34.905Z,42.40
2019-05-20T16:03:02.771Z,45.93
2019-05-20T16:05:30.102Z,37.33
2019-05-20T16:07:57.348Z,38.80
2019-05-20T16:10:24.440Z,37.63
2019-05-20T16:12:51.599Z,38.17
2019-05-20T16:15:18.720Z,43.33
2019-05-20T16:17:48.515Z,43.57
2019-05-20T16:20:15.212Z,42.07
2019-05-20T16:22:42.365Z,48.00
2019-05-20T16:25:09.936Z,38.53
2019-05-20T16:27:37.203Z,36.50
2019-05-20T16:30:07.222Z,47.27
2019-05-20T16:32:34.075Z,39.27
2019-05-20T16:35:01.181Z,45.50
2019-05-20T16:37:28.108Z,39.80
2019-05-20T16:39:55.514Z,38.43
2019-05-20T16:42:22.457Z,40.07
2019-05-20T16:44:49.472Z,38.67
2019-05-20T16:47:17.157Z,41.13
2019-05-20T16:49:45.475Z,41.50
2019-05-20T16:52:12.841Z,36.27
2019-05-20T16:54:39.957Z,37.67
2019-05-20T16:57:07.342Z,39.40
2019-05-20T16:59:34.769Z,42.50
2019-05-20T17:02:02.007Z,43.40
2019-05-20T17:04:29.164Z,48.13
2019-05-20T17:06:56.007Z,50.53
2019-05-20T17:09:23.395Z,44.17
2019-05-20T17:11:50.672Z,48.23
2019-05-20T17:14:18.076Z,42.93
2019-05-20T17:16:45.505Z,43.00
2019-05-20T17:19:15.002Z,44.73
2019-05-20T17:21:44.896Z,48.43
2019-05-20T17:24:12.558Z,43.43
2019-05-20T17:26:40.413Z,38.50
2019-05-20T17:29:08.519Z,42.67
2019-05-20T17:31:36.245Z,44.87
2019-05-20T17:34:03.981Z,48.90
2019-05-20T17:36:31.793Z,41.80
2019-05-20T17:38:59.214Z,41.60
2019-05-20T17:41:27.136Z,49.83
2019-05-20T17:43:54.988Z,55.17
2019-05-20T17:46:22.568Z,40.90
2019-05-20T17:48:50.574Z,43.67
2019-05-20T17:51:18.204Z,41.70
2019-05-20T17:53:45.341Z,36.03
2019-05-20T17:56:12.855Z,40.53
2019-05-20T17:58:40.408Z,35.83
2019-05-20T18:01:15.219Z,40.13
2019-05-20T18:03:37.248Z,33.03
2019-05-20T18:06:05.011Z,42.33
2019-05-20T18:08:35.732Z,39.20
2019-05-20T18:11:03.840Z,38.40
2019-05-20T18:13:31.285Z,43.27
2019-05-20T18:15:58.416Z,41.70
2019-05-20T18:18:25.657Z,39.47
2019-05-20T18:20:56.388Z,36.40
2019-05-20T18:23:22.651Z,32.20
2019-05-20T18:25:50.324Z,33.43
2019-05-20T18:28:17.420Z,36.63
2019-05-20T18:30:46.428Z,31.40
2019-05-20T18:33:13.436Z,36.40
2019-05-20T18:35:40.416Z,32.27
2019-05-20T18:38:07.396Z,38.67
2019-05-20T18:40:34.539Z,34.23
2019-05-20T18:43:01.699Z,34.03
2019-05-20T18:45:28.681Z,41.40
2019-05-20T18:47:56.449Z,37.90
2019-05-20T18:50:24.381Z,47.40
2019-05-20T18:52:51.736Z,42.20
2019-05-20T18:55:20.540Z,38.30
2019-05-20T18:57:48.172Z,37.70
2019-05-20T19:00:16.037Z,42.27
2019-05-20T19:02:43.331Z,42.77
2019-05-20T19:05:11.980Z,41.13
2019-05-20T19:07:40.356Z,40.53
2019-05-20T19:10:09.148Z,42.33
2019-05-20T19:12:36.671Z,39.50
2019-05-20T19:15:04.472Z,44.13
2019-05-20T19:17:32.040Z,36.53
2019-05-20T19:19:59.844Z,37.40
2019-05-20T19:22:29.092Z,40.40
2019-05-20T19:24:56.207Z,36.90
2019-05-20T19:27:23.823Z,40.80
2019-05-20T19:29:50.875Z,45.10
2019-05-20T19:32:20.312Z,42.80
2019-05-20T19:34:48.144Z,38.47
2019-05-20T19:37:15.651Z,45.13
2019-05-20T19:39:42.687Z,38.97
2019-05-20T19:42:09.956Z,38.20
2019-05-20T19:44:37.444Z,40.13
2019-05-20T19:47:04.936Z,38.20
2019-05-20T19:49:31.944Z,40.10
2019-05-20T19:52:00.218Z,41.70
2019-05-20T19:54:27.783Z,43.87
2019-05-20T19:56:54.792Z,44.10
2019-05-20T19:59:22.289Z,38.37
2019-05-20T20:01:49.773Z,41.40
2019-05-20T20:04:16.871Z,40.10
2019-05-20T20:06:44.130Z,41.10
2019-05-20T20:09:11.124Z,41.60
2019-05-20T20:11:39.007Z,44.10
2019-05-20T20:14:06.232Z,36.57
2019-05-20T20:16:33.696Z,35.63
2019-05-20T20:19:00.972Z,39.30
2019-05-20T20:21:29.472Z,39.10
2019-05-20T20:23:56.856Z,33.77
2019-05-20T20:26:26.130Z,37.53
2019-05-20T20:28:53.636Z,37.77
2019-05-20T20:31:22.072Z,33.00
2019-05-20T20:33:49.880Z,34.80
2019-05-20T20:36:16.948Z,32.57
2019-05-20T20:38:44.789Z,29.90
2019-05-20T20:41:13.042Z,38.60
2019-05-20T20:43:40.104Z,33.53
2019-05-20T20:46:07.557Z,38.20
2019-05-20T20:48:36.200Z,40.73
2019-05-20T20:51:03.437Z,38.03
2019-05-20T20:53:31.464Z,31.50
2019-05-20T20:55:58.492Z,29.70
2019-05-20T20:58:26.281Z,35.40
2019-05-20T21:00:53.920Z,32.20
2019-05-20T21:03:21.319Z,40.00
2019-05-20T21:05:48.976Z,37.90
2019-05-20T21:08:16.791Z,37.40
2019-05-20T21:10:44.043Z,40.50
2019-05-20T21:13:11.653Z,36.73
2019-05-20T21:15:39.775Z,43.50
2019-05-20T21:18:08.240Z,43.27
2019-05-20T21:20:35.221Z,46.70
2019-05-20T21:23:02.568Z,42.23
2019-05-20T21:25:31.115Z,42.40
2019-05-20T21:27:58.381Z,37.67
2019-05-20T21:30:25.752Z,38.43
2019-05-20T21:33:07.580Z,41.43
2019-05-20T21:35:22.707Z,48.93
2019-05-20T21:37:50.149Z,39.83
2019-05-20T21:40:18.148Z,45.27
2019-05-20T21:42:45.433Z,49.80
2019-05-20T21:45:13.285Z,50.90
2019-05-20T21:47:40.876Z,47.00
2019-05-20T21:50:07.956Z,47.90
2019-05-20T21:52:35.167Z,60.33
2019-05-20T21:55:02.808Z,58.93
2019-05-20T21:57:30.071Z,56.20
2019-05-20T21:59:56.949Z,52.90
2019-05-20T22:02:26.592Z,52.50
2019-05-20T22:04:53.859Z,42.00
2019-05-20T22:07:21.500Z,44.03
2019-05-20T22:09:49.964Z,54.77
2019-05-20T22:12:17.458Z,44.03
2019-05-20T22:14:44.715Z,43.97
2019-05-20T22:17:13.846Z,39.20
2019-05-20T22:19:41.023Z,35.63
2019-05-20T22:22:31.098Z,37.60
2019-05-20T22:24:58.952Z,30.93
2019-05-20T22:27:26.677Z,33.73
2019-05-20T22:29:53.804Z,27.00
2019-05-20T22:32:21.579Z,28.60
2019-05-20T22:34:53.541Z,31.37
2019-05-20T22:37:18.013Z,34.33
2019-05-20T22:39:45.312Z,28.90
2019-05-20T22:42:13.076Z,28.97
2019-05-20T22:44:40.474Z,31.40
2019-05-20T22:47:07.908Z,29.17
2019-05-20T22:49:34.900Z,28.00
2019-05-20T22:52:02.076Z,30.17
2019-05-20T22:54:30.488Z,34.40
2019-05-20T22:56:58.103Z,30.47
2019-05-20T22:59:25.221Z,28.60
2019-05-20T23:01:53.018Z,27.00
2019-05-20T23:04:20.892Z,26.70
2019-05-20T23:06:48.336Z,25.33
2019-05-20T23:09:16.320Z,24.70
2019-05-20T23:11:44.336Z,28.33
2019-05-20T23:14:11.372Z,27.33
2019-05-20T23:16:38.881Z,31.77
2019-05-20T23:19:06.348Z,29.63
2019-05-20T23:21:33.287Z,30.00
2019-05-20T23:24:00.240Z,31.57
2019-05-20T23:26:27.496Z,26.00
2019-05-20T23:28:54.715Z,32.10
2019-05-20T23:31:22.475Z,27.13
2019-05-20T23:33:50.004Z,22.90
2019-05-20T23:36:17.372Z,26.00
2019-05-20T23:38:45.149Z,26.13
2019-05-20T23:41:12.499Z,27.20
2019-05-20T23:43:39.946Z,17.77
2019-05-20T23:46:07.585Z,19.97
2019-05-20T23:48:35.857Z,17.50
2019-05-20T23:51:03.570Z,14.17
2019-05-20T23:53:31.353Z,17.63
2019-05-20T23:55:59.256Z,16.33
2019-05-20T23:58:26.639Z,13.80
